sensor_id;sensor_type;location;lat;lon;timestamp;P1;durP1;ratioP1;P2;durP2;ratioP2
60847;SDS011;46681;47.696;9.140;2022-10-16T00:01:25;1.27;;;1.23;;
60847;SDS011;46681;47.696;9.140;2022-10-16T00:03:57;2.23;;;1.50;;
60847;SDS011;46681;47.696;9.140;2022-10-16T00:06:26;1.73;;;1.63;;
60847;SDS011;46681;47.696;9.140;2022-10-16T00:08:56;1.67;;;1.30;;
60847;SDS011;46681;47.696;9.140;2022-10-16T00:11:23;1.47;;;1.27;;
60847;SDS011;46681;47.696;9.140;2022-10-16T00:13:57;1.67;;;1.47;;
60847;SDS011;46681;47.696;9.140;2022-10-16T00:16:28;1.70;;;1.60;;
60847;SDS011;46681;47.696;9.140;2022-10-16T00:18:55;1.23;;;1.23;;
60847;SDS011;46681;47.696;9.140;2022-10-16T00:21:26;5.40;;;1.40;;
60847;SDS011;46681;47.696;9.140;2022-10-16T00:24:00;1.47;;;1.23;;
60847;SDS011;46681;47.696;9.140;2022-10-16T00:26:32;4.70;;;1.50;;
60847;SDS011;46681;47.696;9.140;2022-10-16T00:29:03;2.30;;;1.40;;
60847;SDS011;46681;47.696;9.140;2022-10-16T00:31:29;1.70;;;1.60;;
60847;SDS011;46681;47.696;9.140;2022-10-16T00:33:55;5.17;;;1.60;;
60847;SDS011;46681;47.696;9.140;2022-10-16T00:36:23;3.97;;;1.40;;
60847;SDS011;46681;47.696;9.140;2022-10-16T00:38:51;3.60;;;1.40;;
60847;SDS011;46681;47.696;9.140;2022-10-16T00:41:20;1.20;;;1.20;;
60847;SDS011;46681;47.696;9.140;2022-10-16T00:43:51;1.60;;;1.50;;
60847;SDS011;46681;47.696;9.140;2022-10-16T00:51:29;1.83;;;1.43;;
60847;SDS011;46681;47.696;9.140;2022-10-16T00:54:02;1.57;;;1.30;;
60847;SDS011;46681;47.696;9.140;2022-10-16T00:56:36;1.40;;;1.30;;
60847;SDS011;46681;47.696;9.140;2022-10-16T00:59:03;1.50;;;1.40;;
60847;SDS011;46681;47.696;9.140;2022-10-16T01:01:32;2.00;;;1.60;;
60847;SDS011;46681;47.696;9.140;2022-10-16T01:04:00;1.77;;;1.67;;
60847;SDS011;46681;47.696;9.140;2022-10-16T01:09:11;1.33;;;1.33;;
60847;SDS011;46681;47.696;9.140;2022-10-16T01:12:28;2.77;;;1.30;;
60847;SDS011;46681;47.696;9.140;2022-10-16T01:17:55;1.60;;;1.50;;
60847;SDS011;46681;47.696;9.140;2022-10-16T01:20:37;1.60;;;1.50;;
60847;SDS011;46681;47.696;9.140;2022-10-16T01:26:14;2.00;;;1.73;;
60847;SDS011;46681;47.696;9.140;2022-10-16T01:28:57;1.53;;;1.40;;
60847;SDS011;46681;47.696;9.140;2022-10-16T01:31:32;2.30;;;1.40;;
60847;SDS011;46681;47.696;9.140;2022-10-16T01:36:53;2.03;;;1.30;;
60847;SDS011;46681;47.696;9.140;2022-10-16T01:39:31;3.40;;;1.40;;
60847;SDS011;46681;47.696;9.140;2022-10-16T01:42:10;1.33;;;1.27;;
60847;SDS011;46681;47.696;9.140;2022-10-16T01:44:45;2.50;;;1.50;;
60847;SDS011;46681;47.696;9.140;2022-10-16T01:47:12;1.30;;;1.30;;
60847;SDS011;46681;47.696;9.140;2022-10-16T01:49:38;2.33;;;1.80;;
60847;SDS011;46681;47.696;9.140;2022-10-16T01:52:06;1.30;;;1.30;;
60847;SDS011;46681;47.696;9.140;2022-10-16T01:54:37;2.37;;;1.67;;
60847;SDS011;46681;47.696;9.140;2022-10-16T01:57:08;1.77;;;1.67;;
60847;SDS011;46681;47.696;9.140;2022-10-16T01:59:42;1.60;;;1.53;;
60847;SDS011;46681;47.696;9.140;2022-10-16T02:02:11;1.47;;;1.47;;
60847;SDS011;46681;47.696;9.140;2022-10-16T02:04:44;2.33;;;1.67;;
60847;SDS011;46681;47.696;9.140;2022-10-16T02:07:12;5.73;;;1.60;;
60847;SDS011;46681;47.696;9.140;2022-10-16T02:09:40;4.97;;;1.63;;
60847;SDS011;46681;47.696;9.140;2022-10-16T02:12:13;1.67;;;1.57;;
60847;SDS011;46681;47.696;9.140;2022-10-16T02:14:57;1.70;;;1.60;;
60847;SDS011;46681;47.696;9.140;2022-10-16T02:17:25;3.60;;;1.40;;
60847;SDS011;46681;47.696;9.140;2022-10-16T02:19:51;1.90;;;1.50;;
60847;SDS011;46681;47.696;9.140;2022-10-16T02:27:34;1.50;;;1.50;;
60847;SDS011;46681;47.696;9.140;2022-10-16T02:30:32;1.50;;;1.40;;
60847;SDS011;46681;47.696;9.140;2022-10-16T02:33:01;1.70;;;1.50;;
60847;SDS011;46681;47.696;9.140;2022-10-16T02:35:30;1.70;;;1.60;;
60847;SDS011;46681;47.696;9.140;2022-10-16T02:37:58;1.47;;;1.40;;
60847;SDS011;46681;47.696;9.140;2022-10-16T02:40:25;2.33;;;1.37;;
60847;SDS011;46681;47.696;9.140;2022-10-16T02:42:53;4.60;;;1.80;;
60847;SDS011;46681;47.696;9.140;2022-10-16T02:45:25;3.10;;;1.53;;
60847;SDS011;46681;47.696;9.140;2022-10-16T02:47:50;2.43;;;1.40;;
60847;SDS011;46681;47.696;9.140;2022-10-16T02:50:16;2.57;;;1.53;;
60847;SDS011;46681;47.696;9.140;2022-10-16T02:52:42;4.63;;;2.13;;
60847;SDS011;46681;47.696;9.140;2022-10-16T02:55:08;2.23;;;1.67;;
60847;SDS011;46681;47.696;9.140;2022-10-16T02:57:34;1.47;;;1.40;;
60847;SDS011;46681;47.696;9.140;2022-10-16T02:59:59;1.50;;;1.40;;
60847;SDS011;46681;47.696;9.140;2022-10-16T03:02:30;1.67;;;1.57;;
60847;SDS011;46681;47.696;9.140;2022-10-16T03:04:57;1.80;;;1.70;;
60847;SDS011;46681;47.696;9.140;2022-10-16T03:07:24;2.97;;;1.50;;
60847;SDS011;46681;47.696;9.140;2022-10-16T03:09:50;1.60;;;1.50;;
60847;SDS011;46681;47.696;9.140;2022-10-16T03:12:15;1.73;;;1.70;;
60847;SDS011;46681;47.696;9.140;2022-10-16T03:14:42;2.20;;;1.23;;
60847;SDS011;46681;47.696;9.140;2022-10-16T03:17:08;1.60;;;1.50;;
60847;SDS011;46681;47.696;9.140;2022-10-16T03:19:34;1.60;;;1.50;;
60847;SDS011;46681;47.696;9.140;2022-10-16T03:22:00;2.97;;;1.70;;
60847;SDS011;46681;47.696;9.140;2022-10-16T03:24:25;1.70;;;1.33;;
60847;SDS011;46681;47.696;9.140;2022-10-16T03:26:55;2.10;;;1.83;;
60847;SDS011;46681;47.696;9.140;2022-10-16T03:29:22;4.73;;;1.73;;
60847;SDS011;46681;47.696;9.140;2022-10-16T03:31:47;1.73;;;1.60;;
60847;SDS011;46681;47.696;9.140;2022-10-16T03:34:13;1.97;;;1.40;;
60847;SDS011;46681;47.696;9.140;2022-10-16T03:36:38;1.63;;;1.53;;
60847;SDS011;46681;47.696;9.140;2022-10-16T03:39:04;2.43;;;1.60;;
60847;SDS011;46681;47.696;9.140;2022-10-16T03:41:29;1.63;;;1.53;;
60847;SDS011;46681;47.696;9.140;2022-10-16T03:43:57;1.60;;;1.53;;
60847;SDS011;46681;47.696;9.140;2022-10-16T03:46:22;1.60;;;1.50;;
60847;SDS011;46681;47.696;9.140;2022-10-16T03:48:53;2.63;;;1.90;;
60847;SDS011;46681;47.696;9.140;2022-10-16T03:51:19;2.87;;;1.77;;
60847;SDS011;46681;47.696;9.140;2022-10-16T03:53:44;2.10;;;1.60;;
60847;SDS011;46681;47.696;9.140;2022-10-16T03:56:10;2.23;;;1.40;;
60847;SDS011;46681;47.696;9.140;2022-10-16T03:58:37;1.80;;;1.70;;
60847;SDS011;46681;47.696;9.140;2022-10-16T04:01:02;2.10;;;1.53;;
60847;SDS011;46681;47.696;9.140;2022-10-16T04:03:30;2.90;;;1.60;;
60847;SDS011;46681;47.696;9.140;2022-10-16T04:05:57;1.60;;;1.50;;
60847;SDS011;46681;47.696;9.140;2022-10-16T04:08:22;1.70;;;1.60;;
60847;SDS011;46681;47.696;9.140;2022-10-16T04:10:50;1.57;;;1.57;;
60847;SDS011;46681;47.696;9.140;2022-10-16T04:13:16;3.40;;;1.70;;
60847;SDS011;46681;47.696;9.140;2022-10-16T04:15:41;3.50;;;1.77;;
60847;SDS011;46681;47.696;9.140;2022-10-16T04:18:10;2.27;;;1.80;;
60847;SDS011;46681;47.696;9.140;2022-10-16T04:20:36;1.63;;;1.53;;
60847;SDS011;46681;47.696;9.140;2022-10-16T04:23:01;1.57;;;1.47;;
60847;SDS011;46681;47.696;9.140;2022-10-16T04:25:28;2.53;;;1.67;;
60847;SDS011;46681;47.696;9.140;2022-10-16T04:27:56;3.13;;;1.50;;
60847;SDS011;46681;47.696;9.140;2022-10-16T04:30:22;2.30;;;1.77;;
60847;SDS011;46681;47.696;9.140;2022-10-16T04:32:53;2.90;;;1.90;;
60847;SDS011;46681;47.696;9.140;2022-10-16T04:35:20;3.50;;;1.70;;
60847;SDS011;46681;47.696;9.140;2022-10-16T04:37:47;2.20;;;1.90;;
60847;SDS011;46681;47.696;9.140;2022-10-16T04:40:12;2.33;;;1.83;;
60847;SDS011;46681;47.696;9.140;2022-10-16T04:42:41;1.60;;;1.50;;
60847;SDS011;46681;47.696;9.140;2022-10-16T04:45:08;3.70;;;2.07;;
60847;SDS011;46681;47.696;9.140;2022-10-16T04:47:34;1.93;;;1.83;;
60847;SDS011;46681;47.696;9.140;2022-10-16T04:49:59;2.73;;;2.00;;
60847;SDS011;46681;47.696;9.140;2022-10-16T04:52:25;2.53;;;1.90;;
60847;SDS011;46681;47.696;9.140;2022-10-16T04:54:56;4.10;;;2.27;;
60847;SDS011;46681;47.696;9.140;2022-10-16T04:57:21;2.77;;;2.23;;
60847;SDS011;46681;47.696;9.140;2022-10-16T04:59:47;3.53;;;2.30;;
60847;SDS011;46681;47.696;9.140;2022-10-16T05:02:16;1.97;;;1.87;;
60847;SDS011;46681;47.696;9.140;2022-10-16T05:04:42;2.07;;;1.97;;
60847;SDS011;46681;47.696;9.140;2022-10-16T05:07:09;2.10;;;2.00;;
60847;SDS011;46681;47.696;9.140;2022-10-16T05:09:37;2.93;;;2.40;;
60847;SDS011;46681;47.696;9.140;2022-10-16T05:12:03;4.57;;;2.90;;
60847;SDS011;46681;47.696;9.140;2022-10-16T05:14:28;2.47;;;2.27;;
60847;SDS011;46681;47.696;9.140;2022-10-16T05:16:59;3.33;;;2.90;;
60847;SDS011;46681;47.696;9.140;2022-10-16T05:19:24;4.43;;;2.30;;
60847;SDS011;46681;47.696;9.140;2022-10-16T05:21:50;2.30;;;2.13;;
60847;SDS011;46681;47.696;9.140;2022-10-16T05:24:15;2.70;;;2.50;;
60847;SDS011;46681;47.696;9.140;2022-10-16T05:26:42;2.50;;;2.30;;
60847;SDS011;46681;47.696;9.140;2022-10-16T05:29:07;2.30;;;2.20;;
60847;SDS011;46681;47.696;9.140;2022-10-16T05:31:34;2.93;;;2.00;;
60847;SDS011;46681;47.696;9.140;2022-10-16T05:33:59;2.90;;;2.60;;
60847;SDS011;46681;47.696;9.140;2022-10-16T05:36:25;4.63;;;2.50;;
60847;SDS011;46681;47.696;9.140;2022-10-16T05:38:53;2.30;;;2.20;;
60847;SDS011;46681;47.696;9.140;2022-10-16T05:41:18;4.43;;;2.30;;
60847;SDS011;46681;47.696;9.140;2022-10-16T05:43:46;2.47;;;2.27;;
60847;SDS011;46681;47.696;9.140;2022-10-16T05:46:14;2.67;;;2.47;;
60847;SDS011;46681;47.696;9.140;2022-10-16T05:48:42;5.10;;;3.40;;
60847;SDS011;46681;47.696;9.140;2022-10-16T05:51:10;3.70;;;3.03;;
60847;SDS011;46681;47.696;9.140;2022-10-16T05:53:39;4.13;;;2.70;;
60847;SDS011;46681;47.696;9.140;2022-10-16T05:56:06;2.83;;;2.57;;
60847;SDS011;46681;47.696;9.140;2022-10-16T05:58:35;4.83;;;2.83;;
60847;SDS011;46681;47.696;9.140;2022-10-16T06:01:02;3.63;;;2.83;;
60847;SDS011;46681;47.696;9.140;2022-10-16T06:03:39;4.00;;;2.93;;
60847;SDS011;46681;47.696;9.140;2022-10-16T06:06:24;3.67;;;3.20;;
60847;SDS011;46681;47.696;9.140;2022-10-16T06:08:52;5.27;;;3.10;;
60847;SDS011;46681;47.696;9.140;2022-10-16T06:11:25;3.23;;;3.03;;
60847;SDS011;46681;47.696;9.140;2022-10-16T06:13:55;5.83;;;3.33;;
60847;SDS011;46681;47.696;9.140;2022-10-16T06:16:22;6.17;;;2.90;;
60847;SDS011;46681;47.696;9.140;2022-10-16T06:18:50;5.20;;;3.63;;
60847;SDS011;46681;47.696;9.140;2022-10-16T06:21:17;5.93;;;3.20;;
60847;SDS011;46681;47.696;9.140;2022-10-16T06:23:46;3.87;;;3.50;;
60847;SDS011;46681;47.696;9.140;2022-10-16T06:26:13;5.57;;;4.07;;
60847;SDS011;46681;47.696;9.140;2022-10-16T06:28:40;6.00;;;4.10;;
60847;SDS011;46681;47.696;9.140;2022-10-16T06:31:07;4.17;;;3.80;;
60847;SDS011;46681;47.696;9.140;2022-10-16T06:33:36;4.13;;;3.50;;
60847;SDS011;46681;47.696;9.140;2022-10-16T06:36:06;6.87;;;3.50;;
60847;SDS011;46681;47.696;9.140;2022-10-16T06:38:36;5.27;;;4.00;;
60847;SDS011;46681;47.696;9.140;2022-10-16T06:41:04;5.53;;;3.87;;
60847;SDS011;46681;47.696;9.140;2022-10-16T06:43:34;5.07;;;3.37;;
60847;SDS011;46681;47.696;9.140;2022-10-16T06:46:02;4.20;;;2.60;;
60847;SDS011;46681;47.696;9.140;2022-10-16T06:48:29;4.23;;;2.80;;
60847;SDS011;46681;47.696;9.140;2022-10-16T06:53:29;3.53;;;3.00;;
60847;SDS011;46681;47.696;9.140;2022-10-16T06:56:18;6.43;;;3.00;;
60847;SDS011;46681;47.696;9.140;2022-10-16T06:58:45;4.63;;;3.30;;
60847;SDS011;46681;47.696;9.140;2022-10-16T07:01:13;3.43;;;2.70;;
60847;SDS011;46681;47.696;9.140;2022-10-16T07:03:41;3.00;;;2.80;;
60847;SDS011;46681;47.696;9.140;2022-10-16T07:06:08;3.37;;;3.17;;
60847;SDS011;46681;47.696;9.140;2022-10-16T07:08:38;2.87;;;2.73;;
60847;SDS011;46681;47.696;9.140;2022-10-16T07:11:06;2.50;;;2.30;;
60847;SDS011;46681;47.696;9.140;2022-10-16T07:13:37;4.40;;;2.80;;
60847;SDS011;46681;47.696;9.140;2022-10-16T07:16:05;2.90;;;2.70;;
60847;SDS011;46681;47.696;9.140;2022-10-16T07:18:35;4.33;;;2.80;;
60847;SDS011;46681;47.696;9.140;2022-10-16T07:23:36;2.80;;;2.60;;
60847;SDS011;46681;47.696;9.140;2022-10-16T07:26:04;3.13;;;2.17;;
60847;SDS011;46681;47.696;9.140;2022-10-16T07:28:31;3.20;;;2.50;;
60847;SDS011;46681;47.696;9.140;2022-10-16T07:31:05;3.57;;;2.57;;
60847;SDS011;46681;47.696;9.140;2022-10-16T07:33:35;2.43;;;2.23;;
60847;SDS011;46681;47.696;9.140;2022-10-16T07:36:02;2.97;;;2.73;;
60847;SDS011;46681;47.696;9.140;2022-10-16T07:38:29;4.73;;;2.70;;
60847;SDS011;46681;47.696;9.140;2022-10-16T07:40:58;3.63;;;2.53;;
60847;SDS011;46681;47.696;9.140;2022-10-16T07:43:29;3.47;;;2.60;;
60847;SDS011;46681;47.696;9.140;2022-10-16T07:45:57;5.77;;;2.40;;
60847;SDS011;46681;47.696;9.140;2022-10-16T07:48:23;6.53;;;3.40;;
60847;SDS011;46681;47.696;9.140;2022-10-16T07:50:51;4.53;;;3.90;;
60847;SDS011;46681;47.696;9.140;2022-10-16T07:53:17;8.53;;;4.87;;
60847;SDS011;46681;47.696;9.140;2022-10-16T07:55:43;6.10;;;5.10;;
60847;SDS011;46681;47.696;9.140;2022-10-16T07:58:08;6.10;;;4.90;;
60847;SDS011;46681;47.696;9.140;2022-10-16T08:00:35;5.27;;;4.23;;
60847;SDS011;46681;47.696;9.140;2022-10-16T08:03:02;7.83;;;4.33;;
60847;SDS011;46681;47.696;9.140;2022-10-16T08:05:30;4.90;;;4.40;;
60847;SDS011;46681;47.696;9.140;2022-10-16T08:08:01;3.23;;;2.97;;
60847;SDS011;46681;47.696;9.140;2022-10-16T08:10:29;3.37;;;3.07;;
60847;SDS011;46681;47.696;9.140;2022-10-16T08:12:56;3.50;;;3.20;;
60847;SDS011;46681;47.696;9.140;2022-10-16T08:15:23;4.83;;;3.50;;
60847;SDS011;46681;47.696;9.140;2022-10-16T08:17:58;4.03;;;3.63;;
60847;SDS011;46681;47.696;9.140;2022-10-16T08:20:30;5.97;;;3.90;;
60847;SDS011;46681;47.696;9.140;2022-10-16T08:23:01;4.83;;;4.00;;
60847;SDS011;46681;47.696;9.140;2022-10-16T08:25:29;3.50;;;3.30;;
60847;SDS011;46681;47.696;9.140;2022-10-16T08:27:55;3.50;;;3.20;;
60847;SDS011;46681;47.696;9.140;2022-10-16T08:30:22;4.30;;;3.50;;
60847;SDS011;46681;47.696;9.140;2022-10-16T08:32:50;3.60;;;3.30;;
60847;SDS011;46681;47.696;9.140;2022-10-16T08:35:16;5.27;;;3.73;;
60847;SDS011;46681;47.696;9.140;2022-10-16T08:37:43;3.93;;;2.97;;
60847;SDS011;46681;47.696;9.140;2022-10-16T08:40:31;3.60;;;3.30;;
60847;SDS011;46681;47.696;9.140;2022-10-16T08:43:18;3.47;;;3.17;;
60847;SDS011;46681;47.696;9.140;2022-10-16T08:45:49;2.93;;;2.73;;
60847;SDS011;46681;47.696;9.140;2022-10-16T08:49:10;3.73;;;3.40;;
60847;SDS011;46681;47.696;9.140;2022-10-16T08:51:24;3.30;;;3.00;;
60847;SDS011;46681;47.696;9.140;2022-10-16T08:53:57;3.33;;;3.10;;
60847;SDS011;46681;47.696;9.140;2022-10-16T08:56:29;3.03;;;2.83;;
60847;SDS011;46681;47.696;9.140;2022-10-16T08:58:59;3.47;;;3.03;;
60847;SDS011;46681;47.696;9.140;2022-10-16T09:01:49;5.10;;;2.63;;
60847;SDS011;46681;47.696;9.140;2022-10-16T09:10:11;2.93;;;2.73;;
60847;SDS011;46681;47.696;9.140;2022-10-16T09:15:55;2.83;;;2.63;;
60847;SDS011;46681;47.696;9.140;2022-10-16T09:21:40;3.23;;;2.70;;
60847;SDS011;46681;47.696;9.140;2022-10-16T09:24:17;2.77;;;2.50;;
60847;SDS011;46681;47.696;9.140;2022-10-16T09:26:53;2.93;;;2.73;;
60847;SDS011;46681;47.696;9.140;2022-10-16T09:29:19;3.10;;;2.80;;
60847;SDS011;46681;47.696;9.140;2022-10-16T09:31:50;10.57;;;3.20;;
60847;SDS011;46681;47.696;9.140;2022-10-16T09:37:05;5.40;;;2.90;;
60847;SDS011;46681;47.696;9.140;2022-10-16T09:42:37;2.87;;;2.67;;
60847;SDS011;46681;47.696;9.140;2022-10-16T09:45:04;2.70;;;2.50;;
60847;SDS011;46681;47.696;9.140;2022-10-16T09:47:49;3.00;;;2.80;;
60847;SDS011;46681;47.696;9.140;2022-10-16T09:50:23;2.83;;;2.50;;
60847;SDS011;46681;47.696;9.140;2022-10-16T09:53:05;5.00;;;2.87;;
60847;SDS011;46681;47.696;9.140;2022-10-16T09:55:49;3.00;;;2.80;;
60847;SDS011;46681;47.696;9.140;2022-10-16T09:58:23;2.80;;;2.60;;
60847;SDS011;46681;47.696;9.140;2022-10-16T10:00:49;2.67;;;2.47;;
60847;SDS011;46681;47.696;9.140;2022-10-16T10:03:37;3.43;;;3.13;;
60847;SDS011;46681;47.696;9.140;2022-10-16T10:11:53;2.53;;;2.33;;
60847;SDS011;46681;47.696;9.140;2022-10-16T10:14:24;2.60;;;2.40;;
60847;SDS011;46681;47.696;9.140;2022-10-16T10:19:44;2.60;;;2.40;;
60847;SDS011;46681;47.696;9.140;2022-10-16T10:30:27;2.70;;;2.50;;
60847;SDS011;46681;47.696;9.140;2022-10-16T10:36:02;2.90;;;2.70;;
60847;SDS011;46681;47.696;9.140;2022-10-16T10:44:24;2.47;;;2.27;;
60847;SDS011;46681;47.696;9.140;2022-10-16T10:52:41;3.03;;;2.33;;
60847;SDS011;46681;47.696;9.140;2022-10-16T10:58:37;5.70;;;2.20;;
60847;SDS011;46681;47.696;9.140;2022-10-16T11:01:14;2.40;;;2.20;;
60847;SDS011;46681;47.696;9.140;2022-10-16T11:06:55;2.30;;;2.10;;
60847;SDS011;46681;47.696;9.140;2022-10-16T11:09:35;2.27;;;2.00;;
60847;SDS011;46681;47.696;9.140;2022-10-16T11:12:21;2.47;;;2.10;;
60847;SDS011;46681;47.696;9.140;2022-10-16T11:18:29;2.07;;;1.40;;
60847;SDS011;46681;47.696;9.140;2022-10-16T11:21:02;2.20;;;1.93;;
60847;SDS011;46681;47.696;9.140;2022-10-16T11:23:49;2.13;;;2.00;;
60847;SDS011;46681;47.696;9.140;2022-10-16T11:26:28;2.63;;;1.80;;
60847;SDS011;46681;47.696;9.140;2022-10-16T11:29:23;2.23;;;2.00;;
60847;SDS011;46681;47.696;9.140;2022-10-16T11:32:05;2.27;;;2.07;;
60847;SDS011;46681;47.696;9.140;2022-10-16T11:34:45;2.90;;;1.70;;
60847;SDS011;46681;47.696;9.140;2022-10-16T11:37:47;2.27;;;1.53;;
60847;SDS011;46681;47.696;9.140;2022-10-16T11:40:33;1.93;;;1.83;;
60847;SDS011;46681;47.696;9.140;2022-10-16T11:43:37;2.00;;;1.73;;
60847;SDS011;46681;47.696;9.140;2022-10-16T11:46:30;1.63;;;1.53;;
60847;SDS011;46681;47.696;9.140;2022-10-16T11:49:43;1.60;;;1.50;;
60847;SDS011;46681;47.696;9.140;2022-10-16T11:55:00;1.90;;;1.80;;
60847;SDS011;46681;47.696;9.140;2022-10-16T11:57:51;1.60;;;1.50;;
60847;SDS011;46681;47.696;9.140;2022-10-16T12:00:58;1.97;;;1.77;;
60847;SDS011;46681;47.696;9.140;2022-10-16T12:06:27;1.93;;;1.80;;
60847;SDS011;46681;47.696;9.140;2022-10-16T12:09:15;1.70;;;1.60;;
60847;SDS011;46681;47.696;9.140;2022-10-16T12:15:29;1.83;;;1.53;;
60847;SDS011;46681;47.696;9.140;2022-10-16T12:18:20;1.50;;;1.50;;
60847;SDS011;46681;47.696;9.140;2022-10-16T12:20:57;1.60;;;1.50;;
60847;SDS011;46681;47.696;9.140;2022-10-16T12:23:54;1.50;;;1.43;;
60847;SDS011;46681;47.696;9.140;2022-10-16T12:26:34;1.70;;;1.60;;
60847;SDS011;46681;47.696;9.140;2022-10-16T12:35:19;1.97;;;1.50;;
60847;SDS011;46681;47.696;9.140;2022-10-16T12:38:07;1.83;;;1.70;;
60847;SDS011;46681;47.696;9.140;2022-10-16T12:41:01;2.13;;;1.70;;
60847;SDS011;46681;47.696;9.140;2022-10-16T12:44:02;1.60;;;1.50;;
60847;SDS011;46681;47.696;9.140;2022-10-16T12:46:48;1.60;;;1.50;;
60847;SDS011;46681;47.696;9.140;2022-10-16T12:52:01;1.40;;;1.30;;
60847;SDS011;46681;47.696;9.140;2022-10-16T12:54:36;1.40;;;1.30;;
60847;SDS011;46681;47.696;9.140;2022-10-16T12:57:22;1.43;;;1.33;;
60847;SDS011;46681;47.696;9.140;2022-10-16T13:14:01;1.63;;;1.53;;
60847;SDS011;46681;47.696;9.140;2022-10-16T13:16:48;1.57;;;1.47;;
60847;SDS011;46681;47.696;9.140;2022-10-16T13:25:05;2.30;;;1.40;;
60847;SDS011;46681;47.696;9.140;2022-10-16T13:33:17;1.43;;;1.30;;
60847;SDS011;46681;47.696;9.140;2022-10-16T13:35:52;1.33;;;1.23;;
60847;SDS011;46681;47.696;9.140;2022-10-16T13:38:32;1.27;;;1.27;;
60847;SDS011;46681;47.696;9.140;2022-10-16T13:41:11;1.20;;;1.10;;
60847;SDS011;46681;47.696;9.140;2022-10-16T13:44:00;1.17;;;1.07;;
60847;SDS011;46681;47.696;9.140;2022-10-16T13:46:42;1.20;;;1.20;;
60847;SDS011;46681;47.696;9.140;2022-10-16T13:49:17;1.17;;;1.10;;
60847;SDS011;46681;47.696;9.140;2022-10-16T13:51:57;1.40;;;1.30;;
60847;SDS011;46681;47.696;9.140;2022-10-16T13:55:04;1.37;;;1.23;;
60847;SDS011;46681;47.696;9.140;2022-10-16T13:57:42;1.20;;;1.20;;
60847;SDS011;46681;47.696;9.140;2022-10-16T14:00:29;1.00;;;1.00;;
60847;SDS011;46681;47.696;9.140;2022-10-16T14:03:26;1.47;;;1.10;;
60847;SDS011;46681;47.696;9.140;2022-10-16T14:06:01;1.43;;;1.10;;
60847;SDS011;46681;47.696;9.140;2022-10-16T14:08:41;1.30;;;1.20;;
60847;SDS011;46681;47.696;9.140;2022-10-16T14:11:22;1.93;;;1.10;;
60847;SDS011;46681;47.696;9.140;2022-10-16T14:13:59;1.10;;;1.10;;
60847;SDS011;46681;47.696;9.140;2022-10-16T14:16:31;1.27;;;1.20;;
60847;SDS011;46681;47.696;9.140;2022-10-16T14:19:01;3.30;;;1.20;;
60847;SDS011;46681;47.696;9.140;2022-10-16T14:22:19;0.90;;;0.90;;
60847;SDS011;46681;47.696;9.140;2022-10-16T14:24:58;1.20;;;1.10;;
60847;SDS011;46681;47.696;9.140;2022-10-16T14:27:32;1.00;;;1.00;;
60847;SDS011;46681;47.696;9.140;2022-10-16T14:33:03;1.10;;;1.00;;
60847;SDS011;46681;47.696;9.140;2022-10-16T14:36:13;1.27;;;1.20;;
60847;SDS011;46681;47.696;9.140;2022-10-16T14:38:56;1.00;;;1.00;;
60847;SDS011;46681;47.696;9.140;2022-10-16T14:41:47;1.43;;;1.17;;
60847;SDS011;46681;47.696;9.140;2022-10-16T14:44:28;1.63;;;1.20;;
60847;SDS011;46681;47.696;9.140;2022-10-16T14:47:13;1.17;;;1.10;;
60847;SDS011;46681;47.696;9.140;2022-10-16T14:49:54;2.60;;;1.17;;
60847;SDS011;46681;47.696;9.140;2022-10-16T14:52:23;2.60;;;1.30;;
60847;SDS011;46681;47.696;9.140;2022-10-16T14:54:58;1.27;;;1.17;;
60847;SDS011;46681;47.696;9.140;2022-10-16T14:57:29;4.07;;;1.47;;
60847;SDS011;46681;47.696;9.140;2022-10-16T15:00:08;3.37;;;1.40;;
60847;SDS011;46681;47.696;9.140;2022-10-16T15:02:48;3.27;;;1.80;;
60847;SDS011;46681;47.696;9.140;2022-10-16T15:07:59;1.60;;;1.27;;
60847;SDS011;46681;47.696;9.140;2022-10-16T15:10:27;3.13;;;1.40;;
60847;SDS011;46681;47.696;9.140;2022-10-16T15:13:10;2.40;;;1.47;;
60847;SDS011;46681;47.696;9.140;2022-10-16T15:15:44;1.83;;;1.73;;
60847;SDS011;46681;47.696;9.140;2022-10-16T15:18:13;2.80;;;1.93;;
60847;SDS011;46681;47.696;9.140;2022-10-16T15:20:42;3.17;;;1.50;;
60847;SDS011;46681;47.696;9.140;2022-10-16T15:23:14;1.43;;;1.37;;
60847;SDS011;46681;47.696;9.140;2022-10-16T15:28:31;2.60;;;1.80;;
60847;SDS011;46681;47.696;9.140;2022-10-16T15:30:58;1.53;;;1.43;;
60847;SDS011;46681;47.696;9.140;2022-10-16T15:33:31;2.30;;;1.53;;
60847;SDS011;46681;47.696;9.140;2022-10-16T15:36:00;1.70;;;1.40;;
60847;SDS011;46681;47.696;9.140;2022-10-16T15:38:35;3.03;;;1.77;;
60847;SDS011;46681;47.696;9.140;2022-10-16T15:41:02;2.63;;;1.50;;
60847;SDS011;46681;47.696;9.140;2022-10-16T15:43:33;3.03;;;1.40;;
60847;SDS011;46681;47.696;9.140;2022-10-16T15:46:04;2.40;;;1.40;;
60847;SDS011;46681;47.696;9.140;2022-10-16T15:48:38;2.90;;;1.70;;
60847;SDS011;46681;47.696;9.140;2022-10-16T15:51:07;1.70;;;1.43;;
60847;SDS011;46681;47.696;9.140;2022-10-16T15:53:36;1.80;;;1.63;;
60847;SDS011;46681;47.696;9.140;2022-10-16T15:56:04;1.80;;;1.70;;
60847;SDS011;46681;47.696;9.140;2022-10-16T15:58:35;1.97;;;1.50;;
60847;SDS011;46681;47.696;9.140;2022-10-16T16:01:01;1.93;;;1.67;;
60847;SDS011;46681;47.696;9.140;2022-10-16T16:03:27;1.80;;;1.70;;
60847;SDS011;46681;47.696;9.140;2022-10-16T16:05:55;1.90;;;1.60;;
60847;SDS011;46681;47.696;9.140;2022-10-16T16:11:12;3.57;;;1.93;;
60847;SDS011;46681;47.696;9.140;2022-10-16T16:13:43;1.83;;;1.10;;
60847;SDS011;46681;47.696;9.140;2022-10-16T16:16:15;2.67;;;1.50;;
60847;SDS011;46681;47.696;9.140;2022-10-16T16:18:44;7.63;;;1.47;;
60847;SDS011;46681;47.696;9.140;2022-10-16T16:21:11;3.03;;;1.40;;
60847;SDS011;46681;47.696;9.140;2022-10-16T16:23:38;2.27;;;1.20;;
60847;SDS011;46681;47.696;9.140;2022-10-16T16:26:05;2.97;;;1.47;;
60847;SDS011;46681;47.696;9.140;2022-10-16T16:28:42;2.90;;;1.33;;
60847;SDS011;46681;47.696;9.140;2022-10-16T16:31:10;1.33;;;1.23;;
60847;SDS011;46681;47.696;9.140;2022-10-16T16:33:53;3.07;;;1.33;;
60847;SDS011;46681;47.696;9.140;2022-10-16T16:36:22;1.30;;;1.20;;
60847;SDS011;46681;47.696;9.140;2022-10-16T16:38:51;2.97;;;1.40;;
60847;SDS011;46681;47.696;9.140;2022-10-16T16:43:44;1.63;;;1.30;;
60847;SDS011;46681;47.696;9.140;2022-10-16T16:46:11;1.50;;;1.20;;
60847;SDS011;46681;47.696;9.140;2022-10-16T16:48:39;1.57;;;1.03;;
60847;SDS011;46681;47.696;9.140;2022-10-16T16:51:09;2.50;;;1.10;;
60847;SDS011;46681;47.696;9.140;2022-10-16T16:53:44;3.93;;;1.27;;
60847;SDS011;46681;47.696;9.140;2022-10-16T16:56:15;2.87;;;1.50;;
60847;SDS011;46681;47.696;9.140;2022-10-16T16:58:45;3.40;;;1.17;;
60847;SDS011;46681;47.696;9.140;2022-10-16T17:01:14;1.27;;;1.27;;
60847;SDS011;46681;47.696;9.140;2022-10-16T17:03:44;2.07;;;1.30;;
60847;SDS011;46681;47.696;9.140;2022-10-16T17:06:12;1.40;;;1.30;;
60847;SDS011;46681;47.696;9.140;2022-10-16T17:08:38;1.77;;;1.40;;
60847;SDS011;46681;47.696;9.140;2022-10-16T17:11:04;1.67;;;1.10;;
60847;SDS011;46681;47.696;9.140;2022-10-16T17:13:37;1.53;;;1.27;;
60847;SDS011;46681;47.696;9.140;2022-10-16T17:16:05;2.13;;;1.30;;
60847;SDS011;46681;47.696;9.140;2022-10-16T17:18:36;2.50;;;1.20;;
60847;SDS011;46681;47.696;9.140;2022-10-16T17:21:05;1.20;;;1.10;;
60847;SDS011;46681;47.696;9.140;2022-10-16T17:23:43;4.27;;;1.30;;
60847;SDS011;46681;47.696;9.140;2022-10-16T17:26:13;1.20;;;1.20;;
60847;SDS011;46681;47.696;9.140;2022-10-16T17:28:43;2.37;;;1.23;;
60847;SDS011;46681;47.696;9.140;2022-10-16T17:31:11;1.77;;;1.20;;
60847;SDS011;46681;47.696;9.140;2022-10-16T17:33:41;1.00;;;1.00;;
60847;SDS011;46681;47.696;9.140;2022-10-16T17:36:11;8.00;;;1.80;;
60847;SDS011;46681;47.696;9.140;2022-10-16T17:38:37;1.50;;;1.40;;
60847;SDS011;46681;47.696;9.140;2022-10-16T17:41:23;1.50;;;1.40;;
60847;SDS011;46681;47.696;9.140;2022-10-16T17:43:49;1.27;;;1.17;;